Airfield :
LOGIN :

Register | Disclaimer

   EN    FR    IT 

 










Legend :    VFR   Marginal VFR   IFR   Intensive IFR   Very Intensive IFR
Visi :
Ceiling :
>= 8 km
>= 3000ft
5 to 8 km
1000 to 3000 ft
1500m to 5 km
500 to 1000 ft
800 to 1500m
200 to 500 ft
< 800m
< 200 ft
Symbols :   Thunderstorms  Fog  Heavy snow  Heavy precipitations  Wind > 20 kt
SIGMETs :     Misc.  Thunderstorms  Icing  Turbulence  Mountain Waves  Volcanic Ashes







- Airport Elevation : 1416 ft
- IATA code : ZRH


LSZH - Zurich

CURRENT METAR :
  • 130350Z 14006KT 7000 BCFG FEW001 SCT003 06/06 Q1024 NOSIG

EXPIRED METARs :
  • 130320Z 14004KT 2000 0600N R14/1000U R16/P2000N R28/P2000N R34/1200U BCFG BKN003 06/06 Q1024 NOSIG
  • 130250Z 13003KT 0400 R14/0500D R16/1100U R28/0800U R34/0550U FG VV001 06/05 Q1023 NOSIG
  • 130220Z 12002KT 0400 R14/0500D R16/1100U R28/0800U R34/0550U FG VV001 05/05 Q1023 NOSIG
  • 130150Z 12001KT 0400 R14/0500D R16/1100U R28/0800U R34/0550U FG VV001 05/05 Q1023 NOSIG
  • 130120Z VRB01KT 0400 R14/0500D R16/1100U R28/0800U R34/0550U FG VV001 05/05 Q1023 NOSIG

TAF AMD TAF LSZH
Valid from the 13 at 03:00 until the 14 at 09:00 UTC


130335Z 1303/1409 14004KT 2000 BCFG BKN003 TX12/1315Z TN06/1306Z TN05/1406Z
BECMG 1304/1308 6000 BKN040
TEMPO 1311/1317 RA
BECMG 1319/1322 3000 BCFG SCT001
BECMG 1322/1401 0200 FG VV001
BECMG 1408/1409 1200 BCFG OVC004
ATIS : +41 43 816 2295 (DEP) +41 43 816 2294 (ARR)
No reported NOTAMs for that airfield.



MET'MAP, your aeronautical weather chart ! - Copyright ORBIFLY December 2007 - Disclaimer

ORBIFLY MET'MAP TEAM :

Programming & Development : Alexandra Zaïnal
Concept & Development : Baudouin d'Aumeries
Co-Development & Prog : Marc-Olivier Méhu
Technical & hardware support : Manuel Goepfert

Contact : metmap@orbifly.com




SOURCES & CREDITS :

   NOAA